createdAt,value
2019-04-14T00:00:23.151Z,79.59
2019-04-14T00:02:51.163Z,79.81
2019-04-14T00:05:21.820Z,80.09
2019-04-14T00:07:51.820Z,80.18
2019-04-14T00:10:22.556Z,80.33
2019-04-14T00:12:53.423Z,80.30
2019-04-14T00:15:32.988Z,80.27
2019-04-14T00:17:58.995Z,80.41
2019-04-14T00:20:29.326Z,80.60
2019-04-14T00:22:59.790Z,80.59
2019-04-14T00:25:30.504Z,80.84
2019-04-14T00:28:00.757Z,81.04
2019-04-14T00:30:31.605Z,81.29
2019-04-14T00:33:04.138Z,81.31
2019-04-14T00:36:06.482Z,81.26
2019-04-14T00:38:39.133Z,81.29
2019-04-14T00:41:40.303Z,81.21
2019-04-14T00:44:10.313Z,81.15
2019-04-14T00:46:45.349Z,81.15
2019-04-14T00:49:15.779Z,81.16
2019-04-14T00:51:50.759Z,81.21
2019-04-14T00:54:21.672Z,81.16
2019-04-14T00:56:58.919Z,81.05
2019-04-14T00:59:29.041Z,81.23
2019-04-14T01:01:59.713Z,81.10
2019-04-14T01:04:29.566Z,81.15
2019-04-14T01:07:00.142Z,81.23
2019-04-14T01:09:30.517Z,81.10
2019-04-14T01:12:01.819Z,81.19
2019-04-14T01:14:32.004Z,81.20
2019-04-14T01:17:02.764Z,81.06
2019-04-14T01:19:33.101Z,81.02
2019-04-14T01:22:03.258Z,81.19
2019-04-14T01:24:33.671Z,81.21
2019-04-14T01:27:03.946Z,81.26
2019-04-14T01:29:34.140Z,81.25
2019-04-14T01:32:04.862Z,81.16
2019-04-14T01:34:34.859Z,81.01
2019-04-14T01:37:05.244Z,81.00
2019-04-14T01:39:35.086Z,81.06
2019-04-14T01:42:05.506Z,80.99
2019-04-14T01:44:35.485Z,81.26
2019-04-14T01:47:07.420Z,81.23
2019-04-14T01:49:37.631Z,81.35
2019-04-14T01:52:32.454Z,81.44
2019-04-14T01:55:33.252Z,81.44
2019-04-14T01:58:34.351Z,81.56
2019-04-14T02:01:26.246Z,81.64
2019-04-14T02:03:56.324Z,81.60
2019-04-14T02:06:26.921Z,81.50
2019-04-14T02:08:56.984Z,81.34
2019-04-14T02:11:27.047Z,81.34
2019-04-14T02:13:57.235Z,81.31
2019-04-14T02:16:34.926Z,81.23
2019-04-14T02:18:58.730Z,81.28
2019-04-14T02:21:28.655Z,81.41
2019-04-14T02:23:58.421Z,81.54
2019-04-14T02:26:28.737Z,81.53
2019-04-14T02:28:59.234Z,81.49
2019-04-14T02:31:57.021Z,81.40
2019-04-14T02:34:34.219Z,81.48
2019-04-14T02:37:04.764Z,81.46
2019-04-14T02:39:46.722Z,81.49
2019-04-14T02:44:43.966Z,81.43
2019-04-14T02:47:26.986Z,81.48
2019-04-14T02:49:47.151Z,81.53
2019-04-14T02:52:12.107Z,81.56
2019-04-14T02:54:51.667Z,81.59
2019-04-14T02:57:17.365Z,81.58
2019-04-14T03:04:50.600Z,81.60
2019-04-14T03:07:34.302Z,81.66
2019-04-14T03:10:04.838Z,81.68
2019-04-14T03:15:03.458Z,81.76
2019-04-14T03:17:47.715Z,81.68
2019-04-14T03:20:34.887Z,81.57
2019-04-14T03:23:19.508Z,81.68
2019-04-14T03:25:43.047Z,81.61
2019-04-14T03:28:36.519Z,81.50
2019-04-14T03:34:18.144Z,81.45
2019-04-14T03:36:59.795Z,81.55
2019-04-14T03:38:55.871Z,81.58
2019-04-14T03:41:16.579Z,81.54
2019-04-14T03:43:54.517Z,81.37
2019-04-14T03:46:25.137Z,81.47
2019-04-14T03:51:44.597Z,81.43
2019-04-14T03:53:48.962Z,81.27
2019-04-14T03:56:31.933Z,81.07
2019-04-14T03:59:02.004Z,81.08
2019-04-14T04:01:32.325Z,81.05
2019-04-14T04:04:03.256Z,80.97
2019-04-14T04:06:33.546Z,80.97
2019-04-14T04:09:06.271Z,80.87
2019-04-14T04:11:36.638Z,80.75
2019-04-14T04:14:07.468Z,80.68
2019-04-14T04:16:48.439Z,80.79
2019-04-14T04:19:25.126Z,80.78
2019-04-14T04:22:13.085Z,80.70
2019-04-14T04:25:02.898Z,80.64
2019-04-14T04:27:39.709Z,80.66
2019-04-14T04:30:27.717Z,80.74
2019-04-14T04:33:19.979Z,80.80
2019-04-14T04:35:54.327Z,80.79
2019-04-14T04:38:31.300Z,80.59
2019-04-14T04:41:01.599Z,80.52
2019-04-14T04:43:31.870Z,80.67
2019-04-14T04:46:02.663Z,80.81
2019-04-14T04:48:32.881Z,81.02
2019-04-14T04:51:02.955Z,81.01
2019-04-14T04:53:33.050Z,81.00
2019-04-14T04:56:03.608Z,80.98
2019-04-14T04:58:33.502Z,80.91
2019-04-14T05:01:03.756Z,80.75
2019-04-14T05:03:33.956Z,80.62
2019-04-14T05:06:46.415Z,80.18
2019-04-14T05:09:29.495Z,80.59
2019-04-14T05:12:13.225Z,80.52
2019-04-14T05:15:03.336Z,80.49
2019-04-14T05:17:34.210Z,80.41
2019-04-14T05:20:05.373Z,80.34
2019-04-14T05:22:37.929Z,80.31
2019-04-14T05:25:08.073Z,80.42
2019-04-14T05:27:38.727Z,80.45
2019-04-14T05:30:09.184Z,80.65
2019-04-14T05:32:39.166Z,80.69
2019-04-14T05:35:09.766Z,80.64
2019-04-14T05:37:40.046Z,80.72
2019-04-14T05:40:08.740Z,80.71
2019-04-14T05:42:37.042Z,80.70
2019-04-14T05:45:06.612Z,80.76
2019-04-14T05:47:35.256Z,80.84
2019-04-14T05:50:03.588Z,80.85
2019-04-14T05:52:31.929Z,80.94
2019-04-14T05:55:00.390Z,80.79
2019-04-14T05:57:30.771Z,80.68
2019-04-14T06:00:01.784Z,80.66
2019-04-14T06:02:33.575Z,80.52
2019-04-14T06:05:03.738Z,80.48
2019-04-14T06:07:33.598Z,80.22
2019-04-14T06:10:04.257Z,80.18
2019-04-14T06:12:34.407Z,80.16
2019-04-14T06:15:04.950Z,80.00
2019-04-14T06:17:34.825Z,79.83
2019-04-14T06:20:05.789Z,79.62
2019-04-14T06:22:35.465Z,79.33
2019-04-14T06:25:06.787Z,79.04
2019-04-14T06:27:37.330Z,78.82
2019-04-14T06:30:35.793Z,78.50
2019-04-14T06:33:12.751Z,78.33
2019-04-14T06:36:06.624Z,78.31
2019-04-14T06:38:38.750Z,78.08
2019-04-14T06:41:10.716Z,78.05
2019-04-14T06:43:48.786Z,77.93
2019-04-14T06:46:12.281Z,77.68
2019-04-14T06:48:42.270Z,77.77
2019-04-14T06:51:12.183Z,77.71
2019-04-14T06:53:42.399Z,77.53
2019-04-14T06:56:12.309Z,77.40
2019-04-14T06:58:42.225Z,77.39
2019-04-14T07:01:12.873Z,77.21
2019-04-14T07:03:42.679Z,76.80
2019-04-14T07:06:12.627Z,76.16
2019-04-14T07:08:42.498Z,75.50
2019-04-14T07:11:12.410Z,75.11
2019-04-14T07:13:47.856Z,74.67
2019-04-14T07:16:14.677Z,73.60
2019-04-14T07:18:44.376Z,73.53
2019-04-14T07:21:14.344Z,72.80
2019-04-14T07:23:44.049Z,72.42
2019-04-14T07:26:14.048Z,71.80
2019-04-14T07:28:55.969Z,70.92
2019-04-14T07:31:49.490Z,70.15
2019-04-14T07:34:36.738Z,69.84
2019-04-14T07:37:19.167Z,68.95
2019-04-14T07:39:58.492Z,68.35
2019-04-14T07:42:34.937Z,67.71
2019-04-14T07:45:13.174Z,67.02
2019-04-14T07:47:48.107Z,66.36
2019-04-14T07:50:35.683Z,64.87
2019-04-14T07:53:27.499Z,65.01
2019-04-14T07:56:15.093Z,64.61
2019-04-14T07:58:54.837Z,63.25
2019-04-14T08:01:29.083Z,63.07
2019-04-14T08:04:17.587Z,62.36
2019-04-14T08:06:49.517Z,61.93
2019-04-14T08:09:18.111Z,61.01
2019-04-14T08:11:46.461Z,61.16
2019-04-14T08:14:14.850Z,60.45
2019-04-14T08:16:44.470Z,60.21
2019-04-14T08:19:12.847Z,59.10
2019-04-14T08:21:41.144Z,58.90
2019-04-14T08:24:09.900Z,58.09
2019-04-14T08:26:38.511Z,57.07
2019-04-14T08:29:06.956Z,57.51
2019-04-14T08:31:35.256Z,56.70
2019-04-14T08:34:04.722Z,56.77
2019-04-14T08:36:33.429Z,56.69
2019-04-14T08:39:02.033Z,55.97
2019-04-14T08:41:38.588Z,56.42
2019-04-14T08:44:14.739Z,56.20
2019-04-14T08:47:01.904Z,55.03
2019-04-14T08:50:04.628Z,55.79
2019-04-14T08:52:37.680Z,54.34
2019-04-14T08:55:20.383Z,54.20
2019-04-14T08:58:22.885Z,54.48
2019-04-14T09:00:56.032Z,53.61
2019-04-14T09:03:43.982Z,52.57
2019-04-14T09:06:34.734Z,52.36
2019-04-14T09:09:11.509Z,52.31
2019-04-14T09:12:14.553Z,51.61
2019-04-14T09:14:32.752Z,50.81
2019-04-14T09:17:01.152Z,50.39
2019-04-14T09:19:30.148Z,50.38
2019-04-14T09:21:58.501Z,49.84
2019-04-14T09:24:28.625Z,50.20
2019-04-14T09:26:58.321Z,50.52
2019-04-14T09:29:28.048Z,50.94
2019-04-14T09:31:57.744Z,49.96
2019-04-14T09:34:28.170Z,48.75
2019-04-14T09:36:58.167Z,48.80
2019-04-14T09:39:28.022Z,47.98
2019-04-14T09:41:57.711Z,47.58
2019-04-14T09:44:28.146Z,47.42
2019-04-14T09:46:58.073Z,46.66
2019-04-14T09:49:27.982Z,47.06
2019-04-14T09:51:58.036Z,46.21
2019-04-14T09:54:28.605Z,46.45
2019-04-14T09:56:58.546Z,46.49
2019-04-14T09:59:28.550Z,46.49
2019-04-14T10:01:58.559Z,46.07
2019-04-14T10:04:28.448Z,45.47
2019-04-14T10:06:58.586Z,44.87
2019-04-14T10:09:28.689Z,44.61
2019-04-14T10:11:58.414Z,44.64
2019-04-14T10:14:28.319Z,44.15
2019-04-14T10:17:01.011Z,44.06
2019-04-14T10:19:30.007Z,43.47
2019-04-14T10:22:04.212Z,42.67
2019-04-14T10:24:34.124Z,43.77
2019-04-14T10:27:05.206Z,42.60
2019-04-14T10:29:34.898Z,41.93
2019-04-14T10:32:05.179Z,42.63
2019-04-14T10:34:35.034Z,42.26
2019-04-14T10:37:05.323Z,41.73
2019-04-14T10:39:35.249Z,41.81
2019-04-14T10:42:05.183Z,39.93
2019-04-14T10:44:35.026Z,38.88
2019-04-14T10:47:05.002Z,38.77
2019-04-14T10:49:34.889Z,37.78
2019-04-14T10:52:05.220Z,38.11
2019-04-14T10:54:35.025Z,38.72
2019-04-14T10:57:05.632Z,37.67
2019-04-14T10:59:35.373Z,38.10
2019-04-14T11:02:06.093Z,39.30
2019-04-14T11:04:35.834Z,39.30
2019-04-14T11:07:11.215Z,38.83
2019-04-14T11:09:41.196Z,38.61
2019-04-14T11:12:11.098Z,38.17
2019-04-14T11:14:41.034Z,38.10
2019-04-14T11:17:11.942Z,37.58
2019-04-14T11:19:42.703Z,37.93
2019-04-14T11:22:12.389Z,38.01
2019-04-14T11:24:42.248Z,37.87
2019-04-14T11:27:12.835Z,38.08
2019-04-14T11:29:43.574Z,38.82
2019-04-14T11:32:24.931Z,38.93
2019-04-14T11:35:03.802Z,38.75
2019-04-14T11:37:49.599Z,38.42
2019-04-14T11:40:22.350Z,38.69
2019-04-14T11:42:52.864Z,37.13
2019-04-14T11:45:22.283Z,35.74
2019-04-14T11:47:50.567Z,36.24
2019-04-14T11:50:18.856Z,36.29
2019-04-14T11:52:47.157Z,35.98
2019-04-14T11:55:16.535Z,35.38
2019-04-14T11:57:44.942Z,36.05
2019-04-14T12:00:32.671Z,35.75
2019-04-14T12:03:21.253Z,35.96
2019-04-14T12:06:16.314Z,36.27
2019-04-14T12:08:55.979Z,35.65
2019-04-14T12:11:25.727Z,35.65
2019-04-14T12:13:56.558Z,35.56
2019-04-14T12:16:26.472Z,35.51
2019-04-14T12:18:56.163Z,35.11
2019-04-14T12:21:26.090Z,35.58
2019-04-14T12:23:56.013Z,35.78
2019-04-14T12:26:25.741Z,35.71
2019-04-14T12:28:56.065Z,35.48
2019-04-14T12:31:26.499Z,35.90
2019-04-14T12:33:58.640Z,35.19
2019-04-14T12:36:28.626Z,35.01
2019-04-14T12:39:00.702Z,35.68
2019-04-14T12:41:38.067Z,35.98
2019-04-14T12:44:25.927Z,34.78
2019-04-14T12:47:15.616Z,34.82
2019-04-14T12:49:47.054Z,34.91
2019-04-14T12:52:25.369Z,36.05
2019-04-14T12:54:55.250Z,36.34
2019-04-14T12:57:37.070Z,36.82
2019-04-14T13:00:12.451Z,36.73
2019-04-14T13:02:46.254Z,36.01
2019-04-14T13:05:16.258Z,36.58
2019-04-14T13:07:47.391Z,36.80
2019-04-14T13:10:17.666Z,36.90
2019-04-14T13:12:47.898Z,37.49
2019-04-14T13:15:17.812Z,37.69
2019-04-14T13:17:47.491Z,37.95
2019-04-14T13:20:17.712Z,37.19
2019-04-14T13:22:48.495Z,36.99
2019-04-14T13:25:18.314Z,37.37
2019-04-14T13:27:49.442Z,37.70
2019-04-14T13:30:23.569Z,36.41
2019-04-14T13:32:53.601Z,36.60
2019-04-14T13:35:24.437Z,36.19
2019-04-14T13:37:54.351Z,37.16
2019-04-14T13:40:24.281Z,37.41
2019-04-14T13:42:54.165Z,38.19
2019-04-14T13:45:23.859Z,38.61
2019-04-14T13:47:53.701Z,38.58
2019-04-14T13:50:24.781Z,38.59
2019-04-14T13:52:54.846Z,38.61
2019-04-14T13:55:24.520Z,38.83
2019-04-14T13:57:54.270Z,39.11
2019-04-14T14:00:24.339Z,38.75
2019-04-14T14:02:53.399Z,39.41
2019-04-14T14:05:22.687Z,39.58
2019-04-14T14:07:51.052Z,39.54
2019-04-14T14:10:20.854Z,39.45
2019-04-14T14:13:02.577Z,39.78
2019-04-14T14:15:47.699Z,40.25
2019-04-14T14:18:50.313Z,40.14
2019-04-14T14:21:28.900Z,40.06
2019-04-14T14:24:23.627Z,39.30
2019-04-14T14:26:54.670Z,39.14
2019-04-14T14:29:24.351Z,38.55
2019-04-14T14:31:54.470Z,38.92
2019-04-14T14:34:24.305Z,39.44
2019-04-14T14:36:55.101Z,39.54
2019-04-14T14:39:25.046Z,39.68
2019-04-14T14:41:54.731Z,40.21
2019-04-14T14:44:27.688Z,39.43
2019-04-14T14:47:09.990Z,39.52
2019-04-14T14:49:49.263Z,39.34
2019-04-14T14:52:20.515Z,39.66
2019-04-14T14:54:50.879Z,40.26
2019-04-14T14:57:20.906Z,40.40
2019-04-14T14:59:50.862Z,41.34
2019-04-14T15:02:21.308Z,41.57
2019-04-14T15:04:51.471Z,41.63
2019-04-14T15:07:21.450Z,41.54
2019-04-14T15:09:56.964Z,41.55
2019-04-14T15:12:27.420Z,41.33
2019-04-14T15:14:57.344Z,41.16
2019-04-14T15:17:27.419Z,41.61
2019-04-14T15:19:57.176Z,41.43
2019-04-14T15:22:27.416Z,41.50
2019-04-14T15:24:57.443Z,41.49
2019-04-14T15:27:27.524Z,41.86
2019-04-14T15:29:58.603Z,41.68
2019-04-14T15:32:28.584Z,41.49
2019-04-14T15:34:58.274Z,41.33
2019-04-14T15:37:28.455Z,41.56
2019-04-14T15:40:00.473Z,41.70
2019-04-14T15:42:30.179Z,42.12
2019-04-14T15:45:10.454Z,42.53
2019-04-14T15:48:05.692Z,42.69
2019-04-14T15:51:01.096Z,42.73
2019-04-14T15:53:47.784Z,43.05
2019-04-14T15:56:36.702Z,43.44
2019-04-14T15:59:25.666Z,44.03
2019-04-14T16:02:27.795Z,44.26
2019-04-14T16:05:26.131Z,44.02
2019-04-14T16:08:08.863Z,44.04
2019-04-14T16:11:00.745Z,44.17
2019-04-14T16:13:34.195Z,44.58
2019-04-14T16:16:11.747Z,44.71
2019-04-14T16:19:01.316Z,44.91
2019-04-14T16:21:31.262Z,45.16
2019-04-14T16:24:01.169Z,45.16
2019-04-14T16:26:59.435Z,45.08
2019-04-14T16:29:36.745Z,45.60
2019-04-14T16:32:20.821Z,45.87
2019-04-14T16:34:56.669Z,45.70
2019-04-14T16:37:26.651Z,46.06
2019-04-14T16:39:56.566Z,46.18
2019-04-14T16:42:27.103Z,46.23
2019-04-14T16:44:57.018Z,46.27
2019-04-14T16:47:27.866Z,46.65
2019-04-14T16:49:58.435Z,46.74
2019-04-14T16:52:33.776Z,47.03
2019-04-14T16:55:29.601Z,46.99
2019-04-14T16:58:20.925Z,47.11
2019-04-14T17:00:59.420Z,47.23
2019-04-14T17:03:29.698Z,47.57
2019-04-14T17:05:59.844Z,47.71
2019-04-14T17:08:29.831Z,47.93
2019-04-14T17:10:59.827Z,48.27
2019-04-14T17:13:32.493Z,48.60
2019-04-14T17:16:15.548Z,48.80
2019-04-14T17:18:52.989Z,49.17
2019-04-14T17:21:36.213Z,49.32
2019-04-14T17:24:24.876Z,49.47
2019-04-14T17:27:02.454Z,49.70
2019-04-14T17:30:00.655Z,49.66
2019-04-14T17:32:52.706Z,49.81
2019-04-14T17:35:32.443Z,50.09
2019-04-14T17:38:07.911Z,50.39
2019-04-14T17:41:08.538Z,50.66
2019-04-14T17:43:57.478Z,50.74
2019-04-14T17:46:50.767Z,51.00
2019-04-14T17:49:39.726Z,51.37
2019-04-14T17:52:30.379Z,51.78
2019-04-14T17:55:12.258Z,52.23
2019-04-14T17:58:00.454Z,52.42
2019-04-14T18:00:49.139Z,52.62
2019-04-14T18:03:26.146Z,52.89
2019-04-14T18:05:59.441Z,53.30
2019-04-14T18:08:41.827Z,53.42
2019-04-14T18:11:25.059Z,53.47
2019-04-14T18:14:16.293Z,53.58
2019-04-14T18:17:07.886Z,53.86
2019-04-14T18:19:56.807Z,53.89
2019-04-14T18:22:26.742Z,54.10
2019-04-14T18:24:58.442Z,54.75
2019-04-14T18:27:32.846Z,54.64
2019-04-14T18:30:19.694Z,55.04
2019-04-14T18:33:04.139Z,55.19
2019-04-14T18:35:46.287Z,55.16
2019-04-14T18:38:28.605Z,55.53
2019-04-14T18:41:05.078Z,55.93
2019-04-14T18:43:54.281Z,56.31
2019-04-14T18:46:30.233Z,56.51
2019-04-14T18:49:08.387Z,56.97
2019-04-14T18:52:04.187Z,57.34
2019-04-14T18:54:39.164Z,57.57
2019-04-14T18:57:16.973Z,57.59
2019-04-14T19:00:10.359Z,57.86
2019-04-14T19:02:41.332Z,58.17
2019-04-14T19:05:11.699Z,58.16
2019-04-14T19:07:41.544Z,58.43
2019-04-14T19:10:11.516Z,58.68
2019-04-14T19:13:04.969Z,59.03
2019-04-14T19:15:42.528Z,59.11
2019-04-14T19:18:31.503Z,59.12
2019-04-14T19:21:06.859Z,59.61
2019-04-14T19:23:37.924Z,59.90
2019-04-14T19:26:09.243Z,60.28
2019-04-14T19:28:39.998Z,60.70
2019-04-14T19:31:10.085Z,60.68
2019-04-14T19:33:41.773Z,60.92
2019-04-14T19:36:11.905Z,61.05
2019-04-14T19:38:43.061Z,61.42
2019-04-14T19:41:13.025Z,62.05
2019-04-14T19:43:43.237Z,62.12
2019-04-14T19:46:13.159Z,62.53
2019-04-14T19:48:43.498Z,62.63
2019-04-14T19:51:13.782Z,62.63
2019-04-14T19:53:45.750Z,63.35
2019-04-14T19:56:15.639Z,63.40
2019-04-14T19:58:45.527Z,63.68
2019-04-14T20:01:15.507Z,63.79
2019-04-14T20:03:47.528Z,64.16
2019-04-14T20:06:17.376Z,64.22
2019-04-14T20:08:47.310Z,64.69
2019-04-14T20:11:17.604Z,64.50
2019-04-14T20:13:47.459Z,64.45
2019-04-14T20:16:43.519Z,64.34
2019-04-14T20:19:31.986Z,64.38
2019-04-14T20:22:31.671Z,64.28
2019-04-14T20:25:16.726Z,64.81
2019-04-14T20:27:52.972Z,64.80
2019-04-14T20:30:40.459Z,65.16
2019-04-14T20:33:09.222Z,65.38
2019-04-14T20:35:37.534Z,65.23
2019-04-14T20:38:05.904Z,65.37
2019-04-14T20:40:34.764Z,65.49
2019-04-14T20:43:04.211Z,65.62
2019-04-14T20:45:34.219Z,66.10
2019-04-14T20:48:04.282Z,66.17
2019-04-14T20:50:34.048Z,66.36
2019-04-14T20:53:04.973Z,66.32
2019-04-14T20:55:46.143Z,66.67
2019-04-14T20:58:07.185Z,66.55
2019-04-14T21:00:37.081Z,66.95
2019-04-14T21:03:23.251Z,67.33
2019-04-14T21:06:24.442Z,67.16
2019-04-14T21:09:12.924Z,67.14
2019-04-14T21:12:14.520Z,67.25
2019-04-14T21:14:58.927Z,67.40
2019-04-14T21:17:51.972Z,67.55
2019-04-14T21:20:43.495Z,67.89
2019-04-14T21:23:24.163Z,68.10
2019-04-14T21:26:01.464Z,67.92
2019-04-14T21:28:40.455Z,67.96
2019-04-14T21:31:25.679Z,67.96
2019-04-14T21:34:02.203Z,68.18
2019-04-14T21:36:53.693Z,68.04
2019-04-14T21:39:41.242Z,68.02
2019-04-14T21:42:11.220Z,68.07
2019-04-14T21:44:40.996Z,68.28
2019-04-14T21:47:09.296Z,68.61
2019-04-14T21:49:37.689Z,68.77
2019-04-14T21:52:15.349Z,68.62
2019-04-14T21:54:44.348Z,68.55
2019-04-14T21:57:32.097Z,68.37
2019-04-14T22:00:22.637Z,68.71
2019-04-14T22:03:10.563Z,68.81
2019-04-14T22:05:53.607Z,68.92
2019-04-14T22:08:25.727Z,69.13
2019-04-14T22:10:57.551Z,69.46
2019-04-14T22:13:26.140Z,69.41
2019-04-14T22:15:54.662Z,69.41
2019-04-14T22:18:23.350Z,69.73
2019-04-14T22:20:52.332Z,69.81
2019-04-14T22:23:22.806Z,69.97
2019-04-14T22:25:52.574Z,70.20
2019-04-14T22:28:22.485Z,70.28
2019-04-14T22:30:52.245Z,70.40
2019-04-14T22:33:22.440Z,70.44
2019-04-14T22:35:52.316Z,70.43
2019-04-14T22:38:22.835Z,70.36
2019-04-14T22:40:52.494Z,70.44
2019-04-14T22:43:22.365Z,70.53
2019-04-14T22:45:52.208Z,70.72
2019-04-14T22:48:21.978Z,70.88
2019-04-14T22:50:51.728Z,70.95
2019-04-14T22:53:21.723Z,71.22
2019-04-14T22:55:51.620Z,71.46
2019-04-14T22:58:21.714Z,71.61
2019-04-14T23:01:02.249Z,71.72
2019-04-14T23:03:51.291Z,71.78
2019-04-14T23:06:27.289Z,71.65
2019-04-14T23:09:34.382Z,71.95
2019-04-14T23:12:23.334Z,72.20
2019-04-14T23:14:58.270Z,72.17
2019-04-14T23:17:41.732Z,72.23
2019-04-14T23:20:39.052Z,72.10
2019-04-14T23:23:20.066Z,71.92
2019-04-14T23:25:50.010Z,71.79
2019-04-14T23:28:19.951Z,71.63
2019-04-14T23:30:49.638Z,71.73
2019-04-14T23:33:19.364Z,71.89
2019-04-14T23:35:49.325Z,71.97
2019-04-14T23:38:19.439Z,71.78
2019-04-14T23:40:49.376Z,71.69
2019-04-14T23:43:19.104Z,71.66
2019-04-14T23:45:48.855Z,71.55
2019-04-14T23:48:18.533Z,71.52
2019-04-14T23:50:48.497Z,71.68
2019-04-14T23:53:17.004Z,71.61
2019-04-14T23:55:45.367Z,71.72
2019-04-14T23:58:13.738Z,71.82
